Estación Meteorológica Peña el Pijo (Robertgarden) [ 02/03/23 04:17:09 CET ]

Fecha Hora Presion(HPa) Temp (°C) Humedad % Rocio (°C) Viento ( m/s) Direccion Lluvia 1Hora(mm) Lluvia 24H(mm) LLuvia Total(mm)
2012-Nov-23 01:01:17 1013.100 2.8 91 1.4         178.19
2012-Nov-23 02:01:49 1012.800 1.9 91 0.6         178.19
2012-Nov-23 03:04:33 1012.800 1.6 92 0.4         178.19
2012-Nov-23 04:03:15 1012.600 1.4 92 0.2         178.19
2012-Nov-23 05:01:12 1012.500 1.3 92 0.1         178.19
2012-Nov-23 06:01:14 1012.400 0.9 93 -0.1         178.19
2012-Nov-23 07:01:14 1012.700 0.8 93 -0.2         178.19
2012-Nov-23 08:01:14 1012.900 0.7 93 -0.3         178.19
2012-Nov-23 09:01:12 1012.700 1.6 94 0.7         178.19
2012-Nov-23 10:01:13 1013.200 5.6 95 4.8         178.19
2012-Nov-23 11:01:17 1013.000 9.5 87 7.4         178.19
2012-Nov-23 12:01:15 1012.700 13.5 69 7.9         178.19
2012-Nov-23 13:01:16 1011.800 16.2 53 6.6         178.19
2012-Nov-23 14:01:21 1011.300 16.6 48 5.5         178.19
2012-Nov-23 15:01:14 1010.900 17.2 48 6.0         178.19
2012-Nov-23 16:01:13 1010.700 16.1 53 6.5         178.19
2012-Nov-23 17:01:13 1010.800 12.8 65 6.4         178.19
2012-Nov-23 18:01:12 1011.000 10.4 73 5.8         178.19
2012-Nov-23 19:01:16 1011.300 7.4 79 4.0         178.19
2012-Nov-23 20:01:12 1011.900 5.3 83 2.6         178.19
2012-Nov-23 21:01:17 1012.000 4.2 85 1.9         178.19
2012-Nov-23 22:01:13 1012.100 3.0 87 1.0         178.19
2012-Nov-23 23:01:17 1012.500 2.0 88 0.2         178.19

Temperatura Máxima:17°    Temperatura Mínima:
Presión Máxima:1013.200 Hpa    Presión Mínima:1010.700 Hpa


Volver